createdAt,value
2018-05-18T00:01:53.754Z,1005.43
2018-05-18T00:04:26.296Z,1005.45
2018-05-18T00:06:58.082Z,1005.42
2018-05-18T00:09:36.256Z,1005.41
2018-05-18T00:12:07.138Z,1005.44
2018-05-18T00:14:39.861Z,1005.46
2018-05-18T00:17:09.932Z,1005.42
2018-05-18T00:19:42.359Z,1005.40
2018-05-18T00:22:14.588Z,1005.34
2018-05-18T00:24:46.425Z,1005.36
2018-05-18T00:27:17.458Z,1005.32
2018-05-18T00:29:49.907Z,1005.36
2018-05-18T00:32:22.784Z,1005.32
2018-05-18T00:34:52.875Z,1005.31
2018-05-18T00:37:24.861Z,1005.32
2018-05-18T00:39:54.665Z,1005.32
2018-05-18T00:42:25.893Z,1005.34
2018-05-18T00:44:57.791Z,1005.38
2018-05-18T00:47:30.013Z,1005.33
2018-05-18T00:50:01.947Z,1005.35
2018-05-18T00:52:33.043Z,1005.31
2018-05-18T00:55:08.983Z,1005.33
2018-05-18T00:57:39.887Z,1005.37
2018-05-18T01:00:14.188Z,1005.35
2018-05-18T01:02:44.799Z,1005.31
2018-05-18T01:05:18.264Z,1005.34
2018-05-18T01:07:46.580Z,1005.26
2018-05-18T01:10:17.177Z,1005.27
2018-05-18T01:12:47.355Z,1005.26
2018-05-18T01:15:17.778Z,1005.26
2018-05-18T01:17:50.396Z,1005.27
2018-05-18T01:20:21.462Z,1005.26
2018-05-18T01:22:54.262Z,1005.29
2018-05-18T01:25:26.964Z,1005.27
2018-05-18T01:27:57.178Z,1005.34
2018-05-18T01:30:27.550Z,1005.36
2018-05-18T01:32:58.535Z,1005.29
2018-05-18T01:35:29.495Z,1005.33
2018-05-18T01:38:00.627Z,1005.30
2018-05-18T01:40:31.676Z,1005.32
2018-05-18T01:43:04.304Z,1005.32
2018-05-18T01:45:35.427Z,1005.31
2018-05-18T01:48:07.880Z,1005.30
2018-05-18T01:50:39.629Z,1005.31
2018-05-18T01:53:15.366Z,1005.36
2018-05-18T01:55:49.737Z,1005.25
2018-05-18T01:58:19.894Z,1005.25
2018-05-18T02:00:55.125Z,1005.17
2018-05-18T02:03:28.189Z,1005.19
2018-05-18T02:05:58.725Z,1005.24
2018-05-18T02:08:32.993Z,1005.23
2018-05-18T02:11:04.415Z,1005.24
2018-05-18T02:13:36.476Z,1005.22
2018-05-18T02:16:07.742Z,1005.22
2018-05-18T02:18:38.174Z,1005.18
2018-05-18T02:21:08.285Z,1005.19
2018-05-18T02:23:38.787Z,1005.23
2018-05-18T02:26:11.309Z,1005.30
2018-05-18T02:28:42.686Z,1005.33
2018-05-18T02:31:13.490Z,1005.30
2018-05-18T02:33:46.653Z,1005.31
2018-05-18T02:36:16.600Z,1005.33
2018-05-18T02:38:53.584Z,1005.33
2018-05-18T02:41:24.434Z,1005.35
2018-05-18T02:43:56.418Z,1005.32
2018-05-18T02:46:28.746Z,1005.33
2018-05-18T02:48:59.572Z,1005.31
2018-05-18T02:51:30.633Z,1005.30
2018-05-18T02:54:02.969Z,1005.28
2018-05-18T02:56:36.731Z,1005.30
2018-05-18T02:59:08.166Z,1005.30
2018-05-18T03:01:40.560Z,1005.28
2018-05-18T03:04:10.403Z,1005.35
2018-05-18T03:06:42.259Z,1005.32
2018-05-18T03:09:12.620Z,1005.33
2018-05-18T03:11:43.375Z,1005.31
2018-05-18T03:14:13.085Z,1005.29
2018-05-18T03:16:45.275Z,1005.28
2018-05-18T03:19:16.179Z,1005.26
2018-05-18T03:21:50.872Z,1005.31
2018-05-18T03:24:24.084Z,1005.28
2018-05-18T03:27:01.030Z,1005.27
2018-05-18T03:29:33.147Z,1005.28
2018-05-18T03:32:08.407Z,1005.33
2018-05-18T03:34:41.293Z,1005.31
2018-05-18T03:37:12.591Z,1005.33
2018-05-18T03:39:45.787Z,1005.32
2018-05-18T03:42:16.963Z,1005.32
2018-05-18T03:44:57.664Z,1005.31
2018-05-18T03:47:28.478Z,1005.35
2018-05-18T03:49:58.575Z,1005.28
2018-05-18T03:52:30.951Z,1005.34
2018-05-18T03:55:01.589Z,1005.32
2018-05-18T03:57:32.019Z,1005.37
2018-05-18T04:00:15.375Z,1005.35
2018-05-18T04:03:28.664Z,1005.36
2018-05-18T04:07:11.875Z,1005.42
2018-05-18T04:09:42.685Z,1005.47
2018-05-18T04:12:13.248Z,1005.56
2018-05-18T04:14:44.432Z,1005.53
2018-05-18T04:17:15.896Z,1005.57
2018-05-18T04:19:48.845Z,1005.57
2018-05-18T04:22:20.971Z,1005.66
2018-05-18T04:24:51.356Z,1005.66
2018-05-18T04:27:22.337Z,1005.62
2018-05-18T04:29:52.850Z,1005.64
2018-05-18T04:32:23.755Z,1005.59
2018-05-18T04:34:53.912Z,1005.60
2018-05-18T04:37:24.462Z,1005.64
2018-05-18T04:39:55.166Z,1005.67
2018-05-18T04:42:30.906Z,1005.73
2018-05-18T04:45:05.375Z,1005.70
2018-05-18T04:47:36.860Z,1005.75
2018-05-18T04:50:12.589Z,1005.72
2018-05-18T04:52:44.428Z,1005.77
2018-05-18T04:55:15.249Z,1005.78
2018-05-18T04:57:45.800Z,1005.74
2018-05-18T05:00:16.453Z,1005.78
2018-05-18T05:02:51.497Z,1005.79
2018-05-18T05:05:22.637Z,1005.80
2018-05-18T05:07:53.317Z,1005.80
2018-05-18T05:10:25.535Z,1005.77
2018-05-18T05:12:57.781Z,1005.76
2018-05-18T05:15:27.809Z,1005.80
2018-05-18T05:17:58.574Z,1005.80
2018-05-18T05:20:33.819Z,1005.82
2018-05-18T05:23:06.257Z,1005.87
2018-05-18T05:25:37.139Z,1005.82
2018-05-18T05:28:08.606Z,1005.89
2018-05-18T05:30:39.132Z,1005.91
2018-05-18T05:33:10.759Z,1005.87
2018-05-18T05:35:41.835Z,1005.88
2018-05-18T05:38:13.603Z,1005.86
2018-05-18T05:40:44.865Z,1005.92
2018-05-18T05:43:16.046Z,1005.86
2018-05-18T05:45:46.703Z,1005.86
2018-05-18T05:48:18.720Z,1005.91
2018-05-18T05:50:50.469Z,1005.99
2018-05-18T05:53:20.836Z,1005.97
2018-05-18T05:55:55.089Z,1005.97
2018-05-18T05:58:26.428Z,1005.98
2018-05-18T06:00:57.420Z,1005.96
2018-05-18T06:03:28.711Z,1006.05
2018-05-18T06:06:01.193Z,1006.08
2018-05-18T06:08:35.081Z,1006.05
2018-05-18T06:11:05.569Z,1006.11
2018-05-18T06:13:37.219Z,1006.09
2018-05-18T06:16:09.508Z,1006.10
2018-05-18T06:18:40.705Z,1006.11
2018-05-18T06:21:12.362Z,1006.17
2018-05-18T06:23:43.980Z,1006.18
2018-05-18T06:26:15.145Z,1006.22
2018-05-18T06:28:46.465Z,1006.22
2018-05-18T06:31:16.624Z,1006.21
2018-05-18T06:33:48.040Z,1006.26
2018-05-18T06:36:18.570Z,1006.27
2018-05-18T06:38:50.643Z,1006.33
2018-05-18T06:41:21.259Z,1006.35
2018-05-18T06:43:52.048Z,1006.38
2018-05-18T06:46:23.690Z,1006.46
2018-05-18T06:48:55.102Z,1006.42
2018-05-18T06:51:28.484Z,1006.42
2018-05-18T06:53:58.491Z,1006.45
2018-05-18T06:56:30.084Z,1006.48
2018-05-18T06:59:03.088Z,1006.36
2018-05-18T07:01:32.922Z,1006.32
2018-05-18T07:04:02.761Z,1006.47
2018-05-18T07:06:33.425Z,1006.36
2018-05-18T07:09:05.542Z,1006.36
2018-05-18T07:11:35.247Z,1006.34
2018-05-18T07:14:06.349Z,1006.34
2018-05-18T07:16:36.355Z,1006.36
2018-05-18T07:19:06.107Z,1006.37
2018-05-18T07:21:35.921Z,1006.34
2018-05-18T07:24:05.798Z,1006.35
2018-05-18T07:26:35.510Z,1006.37
2018-05-18T07:29:05.253Z,1006.40
2018-05-18T07:31:35.016Z,1006.39
2018-05-18T07:34:04.786Z,1006.39
2018-05-18T07:36:35.593Z,1006.39
2018-05-18T07:39:06.335Z,1006.40
2018-05-18T07:41:36.161Z,1006.43
2018-05-18T07:44:05.998Z,1006.40
2018-05-18T07:46:35.804Z,1006.43
2018-05-18T07:49:06.445Z,1006.39
2018-05-18T07:51:36.481Z,1006.46
2018-05-18T07:54:06.224Z,1006.42
2018-05-18T07:56:35.886Z,1006.43
2018-05-18T07:59:05.695Z,1006.45
2018-05-18T08:01:35.820Z,1006.42
2018-05-18T08:04:05.607Z,1006.38
2018-05-18T08:06:35.435Z,1006.39
2018-05-18T08:09:05.507Z,1006.40
2018-05-18T08:11:35.827Z,1006.40
2018-05-18T08:14:05.545Z,1006.47
2018-05-18T08:16:35.328Z,1006.42
2018-05-18T08:19:05.103Z,1006.42
2018-05-18T08:21:34.931Z,1006.37
2018-05-18T08:24:04.678Z,1006.35
2018-05-18T08:26:35.580Z,1006.39
2018-05-18T08:29:35.642Z,1006.43
2018-05-18T08:32:06.223Z,1006.45
2018-05-18T08:34:37.782Z,1006.40
2018-05-18T08:37:07.635Z,1006.43
2018-05-18T08:39:37.502Z,1006.40
2018-05-18T08:42:08.019Z,1006.46
2018-05-18T08:44:38.055Z,1006.46
2018-05-18T08:47:08.041Z,1006.45
2018-05-18T08:49:37.901Z,1006.39
2018-05-18T08:52:07.756Z,1006.38
2018-05-18T08:54:37.811Z,1006.43
2018-05-18T08:57:07.660Z,1006.43
2018-05-18T08:59:37.394Z,1006.40
2018-05-18T09:02:07.348Z,1006.38
2018-05-18T09:04:37.197Z,1006.38
2018-05-18T09:07:08.868Z,1006.34
2018-05-18T09:09:38.903Z,1006.38
2018-05-18T09:12:08.761Z,1006.36
2018-05-18T09:14:39.339Z,1006.35
2018-05-18T09:17:09.157Z,1006.39
2018-05-18T09:19:40.290Z,1006.32
2018-05-18T09:22:10.120Z,1006.34
2018-05-18T09:24:40.368Z,1006.35
2018-05-18T09:27:13.325Z,1006.39
2018-05-18T09:29:43.040Z,1006.42
2018-05-18T09:32:14.253Z,1006.35
2018-05-18T09:34:43.995Z,1006.31
2018-05-18T09:37:13.768Z,1006.36
2018-05-18T09:39:43.586Z,1006.34
2018-05-18T09:42:13.753Z,1006.30
2018-05-18T09:44:43.581Z,1006.33
2018-05-18T09:47:14.145Z,1006.30
2018-05-18T09:49:45.869Z,1006.23
2018-05-18T09:52:15.724Z,1006.30
2018-05-18T09:54:45.725Z,1006.25
2018-05-18T09:57:15.596Z,1006.31
2018-05-18T09:59:45.436Z,1006.36
2018-05-18T10:02:16.002Z,1006.35
2018-05-18T10:04:45.944Z,1006.29
2018-05-18T10:07:15.776Z,1006.26
2018-05-18T10:09:45.668Z,1006.26
2018-05-18T10:12:15.847Z,1006.30
2018-05-18T10:14:45.554Z,1006.30
2018-05-18T10:17:15.306Z,1006.39
2018-05-18T10:19:45.070Z,1006.34
2018-05-18T10:22:15.748Z,1006.33
2018-05-18T10:24:45.589Z,1006.29
2018-05-18T10:27:15.886Z,1006.26
2018-05-18T10:29:45.656Z,1006.33
2018-05-18T10:32:17.015Z,1006.33
2018-05-18T10:34:49.032Z,1006.35
2018-05-18T10:37:19.453Z,1006.28
2018-05-18T10:39:49.169Z,1006.33
2018-05-18T10:42:19.543Z,1006.32
2018-05-18T10:44:49.228Z,1006.35
2018-05-18T10:47:19.562Z,1006.23
2018-05-18T10:49:50.877Z,1006.17
2018-05-18T10:52:20.153Z,1006.10
2018-05-18T10:54:50.489Z,1006.13
2018-05-18T10:57:20.775Z,1006.06
2018-05-18T10:59:51.511Z,1006.05
2018-05-18T11:02:21.581Z,1006.06
2018-05-18T11:04:52.018Z,1006.09
2018-05-18T11:07:22.871Z,1006.06
2018-05-18T11:09:53.177Z,1006.02
2018-05-18T11:12:23.501Z,1005.96
2018-05-18T11:14:54.108Z,1005.91
2018-05-18T11:17:23.913Z,1005.89
2018-05-18T11:19:53.924Z,1005.89
2018-05-18T11:22:23.675Z,1005.84
2018-05-18T11:24:54.394Z,1005.87
2018-05-18T11:27:25.459Z,1005.85
2018-05-18T11:29:55.234Z,1005.88
2018-05-18T11:32:25.887Z,1005.86
2018-05-18T11:34:56.293Z,1005.79
2018-05-18T11:37:26.651Z,1005.76
2018-05-18T11:39:57.299Z,1005.79
2018-05-18T11:42:27.195Z,1005.78
2018-05-18T11:44:58.653Z,1005.75
2018-05-18T11:47:28.836Z,1005.74
2018-05-18T11:50:00.025Z,1005.73
2018-05-18T11:52:30.261Z,1005.72
2018-05-18T11:55:02.974Z,1005.67
2018-05-18T11:57:34.517Z,1005.75
2018-05-18T12:00:07.439Z,1005.68
2018-05-18T12:02:39.622Z,1005.71
2018-05-18T12:05:09.449Z,1005.71
2018-05-18T12:07:39.254Z,1005.61
2018-05-18T12:10:08.892Z,1005.58
2018-05-18T12:12:38.795Z,1005.57
2018-05-18T12:15:10.045Z,1005.53
2018-05-18T12:17:40.222Z,1005.52
2018-05-18T12:20:09.982Z,1005.43
2018-05-18T12:22:39.902Z,1005.40
2018-05-18T12:25:09.660Z,1005.41
2018-05-18T12:27:40.572Z,1005.45
2018-05-18T12:30:10.424Z,1005.43
2018-05-18T12:32:42.059Z,1005.39
2018-05-18T12:35:12.524Z,1005.36
2018-05-18T12:37:43.221Z,1005.32
2018-05-18T12:40:13.308Z,1005.28
2018-05-18T12:42:43.153Z,1005.30
2018-05-18T12:45:15.456Z,1005.27
2018-05-18T12:47:45.410Z,1005.23
2018-05-18T12:50:15.164Z,1005.27
2018-05-18T12:52:46.186Z,1005.20
2018-05-18T12:55:16.156Z,1005.20
2018-05-18T12:57:45.869Z,1005.21
2018-05-18T13:00:17.610Z,1005.16
2018-05-18T13:02:48.197Z,1005.20
2018-05-18T13:05:19.712Z,1005.21
2018-05-18T13:07:49.632Z,1005.24
2018-05-18T13:10:19.745Z,1005.16
2018-05-18T13:12:49.619Z,1005.21
2018-05-18T13:15:19.253Z,1005.18
2018-05-18T13:17:49.026Z,1005.17
2018-05-18T13:20:19.161Z,1005.12
2018-05-18T13:22:49.812Z,1005.11
2018-05-18T13:25:19.599Z,1005.11
2018-05-18T13:27:49.492Z,1005.12
2018-05-18T13:30:20.921Z,1005.13
2018-05-18T13:32:50.761Z,1005.08
2018-05-18T13:35:21.195Z,1005.05
2018-05-18T13:37:51.028Z,1005.13
2018-05-18T13:40:20.784Z,1005.09
2018-05-18T13:42:50.586Z,1005.02
2018-05-18T13:45:20.403Z,1005.01
2018-05-18T13:47:50.277Z,1005.02
2018-05-18T13:50:20.348Z,1005.01
2018-05-18T13:52:51.818Z,1005.07
2018-05-18T13:55:21.546Z,1005.08
2018-05-18T13:57:51.585Z,1005.01
2018-05-18T14:00:21.292Z,1004.96
2018-05-18T14:02:51.154Z,1004.97
2018-05-18T14:05:21.335Z,1004.99
2018-05-18T14:07:51.185Z,1004.91
2018-05-18T14:10:21.018Z,1005.00
2018-05-18T14:12:50.869Z,1004.92
2018-05-18T14:15:21.092Z,1004.91
2018-05-18T14:17:50.927Z,1004.94
2018-05-18T14:20:20.771Z,1005.04
2018-05-18T14:22:50.549Z,1004.89
2018-05-18T14:25:20.404Z,1004.95
2018-05-18T14:27:50.207Z,1004.96
2018-05-18T14:30:20.778Z,1004.98
2018-05-18T14:32:53.910Z,1004.92
2018-05-18T14:35:23.682Z,1004.89
2018-05-18T14:37:53.581Z,1004.95
2018-05-18T14:40:23.906Z,1004.88
2018-05-18T14:42:53.702Z,1004.86
2018-05-18T14:45:23.625Z,1004.84
2018-05-18T14:47:53.941Z,1004.89
2018-05-18T14:50:25.411Z,1004.84
2018-05-18T14:52:55.262Z,1004.83
2018-05-18T14:55:24.944Z,1004.84
2018-05-18T14:57:54.910Z,1004.83
2018-05-18T15:00:25.046Z,1004.87
2018-05-18T15:02:55.651Z,1004.89
2018-05-18T15:05:25.577Z,1004.85
2018-05-18T15:07:55.338Z,1004.84
2018-05-18T15:10:25.363Z,1004.86
2018-05-18T15:12:55.242Z,1004.78
2018-05-18T15:15:25.858Z,1004.75
2018-05-18T15:17:55.780Z,1004.73
2018-05-18T15:20:25.490Z,1004.81
2018-05-18T15:22:56.829Z,1004.75
2018-05-18T15:25:27.082Z,1004.70
2018-05-18T15:28:00.620Z,1004.67
2018-05-18T15:30:30.966Z,1004.69
2018-05-18T15:33:01.746Z,1004.73
2018-05-18T15:35:31.520Z,1004.67
2018-05-18T15:38:04.349Z,1004.69
2018-05-18T15:40:34.181Z,1004.68
2018-05-18T15:43:06.688Z,1004.66
2018-05-18T15:45:36.524Z,1004.72
2018-05-18T15:48:07.312Z,1004.65
2018-05-18T15:50:37.002Z,1004.65
2018-05-18T15:53:11.625Z,1004.67
2018-05-18T15:55:42.243Z,1004.71
2018-05-18T15:58:12.242Z,1004.69
2018-05-18T16:00:41.999Z,1004.69
2018-05-18T16:03:12.593Z,1004.68
2018-05-18T16:05:47.285Z,1004.68
2018-05-18T16:08:17.041Z,1004.64
2018-05-18T16:10:46.758Z,1004.62
2018-05-18T16:13:16.531Z,1004.63
2018-05-18T16:15:48.039Z,1004.63
2018-05-18T16:18:17.741Z,1004.64
2018-05-18T16:20:48.652Z,1004.58
2018-05-18T16:23:18.511Z,1004.61
2018-05-18T16:25:48.846Z,1004.57
2018-05-18T16:28:18.804Z,1004.53
2018-05-18T16:30:50.785Z,1004.61
2018-05-18T16:33:20.599Z,1004.57
2018-05-18T16:35:50.950Z,1004.60
2018-05-18T16:38:21.765Z,1004.60
2018-05-18T16:40:51.725Z,1004.59
2018-05-18T16:43:21.482Z,1004.63
2018-05-18T16:45:51.305Z,1004.61
2018-05-18T16:48:21.344Z,1004.61
2018-05-18T16:50:51.259Z,1004.57
2018-05-18T16:53:21.809Z,1004.58
2018-05-18T16:55:51.736Z,1004.58
2018-05-18T16:58:21.608Z,1004.50
2018-05-18T17:00:51.721Z,1004.52
2018-05-18T17:03:22.851Z,1004.54
2018-05-18T17:05:52.585Z,1004.52
2018-05-18T17:08:23.225Z,1004.53
2018-05-18T17:10:53.890Z,1004.53
2018-05-18T17:13:23.843Z,1004.55
2018-05-18T17:15:54.530Z,1004.60
2018-05-18T17:18:24.710Z,1004.61
2018-05-18T17:20:54.644Z,1004.67
2018-05-18T17:23:24.482Z,1004.64
2018-05-18T17:25:54.364Z,1004.64
2018-05-18T17:28:24.119Z,1004.59
2018-05-18T17:30:54.022Z,1004.65
2018-05-18T17:33:24.127Z,1004.58
2018-05-18T17:35:54.036Z,1004.60
2018-05-18T17:38:24.556Z,1004.63
2018-05-18T17:41:02.157Z,1004.63
2018-05-18T17:43:31.986Z,1004.66
2018-05-18T17:46:07.551Z,1004.68
2018-05-18T17:48:37.183Z,1004.65
2018-05-18T17:51:08.454Z,1004.63
2018-05-18T17:53:38.710Z,1004.69
2018-05-18T17:56:09.536Z,1004.67
2018-05-18T17:58:40.038Z,1004.66
2018-05-18T18:01:09.867Z,1004.65
2018-05-18T18:03:41.746Z,1004.64
2018-05-18T18:06:11.654Z,1004.64
2018-05-18T18:08:41.404Z,1004.64
2018-05-18T18:11:12.046Z,1004.67
2018-05-18T18:13:41.960Z,1004.70
2018-05-18T18:16:13.573Z,1004.66
2018-05-18T18:18:43.666Z,1004.64
2018-05-18T18:21:13.815Z,1004.64
2018-05-18T18:23:43.579Z,1004.66
2018-05-18T18:26:13.425Z,1004.63
2018-05-18T18:28:43.619Z,1004.63
2018-05-18T18:31:13.411Z,1004.64
2018-05-18T18:33:44.058Z,1004.61
2018-05-18T18:36:13.916Z,1004.58
2018-05-18T18:38:43.726Z,1004.59
2018-05-18T18:41:13.519Z,1004.64
2018-05-18T18:43:44.981Z,1004.56
2018-05-18T18:46:14.882Z,1004.60
2018-05-18T18:48:44.594Z,1004.59
2018-05-18T18:51:14.454Z,1004.63
2018-05-18T18:53:44.416Z,1004.67
2018-05-18T18:56:15.284Z,1004.65
2018-05-18T18:58:45.456Z,1004.70
2018-05-18T19:01:15.210Z,1004.69
2018-05-18T19:03:45.152Z,1004.71
2018-05-18T19:06:14.871Z,1004.72
2018-05-18T19:08:45.357Z,1004.76
2018-05-18T19:11:15.185Z,1004.78
2018-05-18T19:13:45.318Z,1004.81
2018-05-18T19:16:15.075Z,1004.82
2018-05-18T19:18:44.938Z,1004.86
2018-05-18T19:21:22.515Z,1004.88
2018-05-18T19:23:53.229Z,1004.93
2018-05-18T19:26:23.530Z,1004.94
2018-05-18T19:28:53.308Z,1004.91
2018-05-18T19:31:23.307Z,1004.95
2018-05-18T19:33:53.229Z,1004.92
2018-05-18T19:36:23.143Z,1004.95
2018-05-18T19:38:53.766Z,1004.94
2018-05-18T19:41:23.567Z,1005.02
2018-05-18T19:43:53.342Z,1005.05
2018-05-18T19:46:23.429Z,1005.06
2018-05-18T19:48:53.278Z,1005.09
2018-05-18T19:51:24.076Z,1005.08
2018-05-18T19:53:53.912Z,1005.02
2018-05-18T19:56:23.713Z,1005.03
2018-05-18T19:58:53.467Z,1005.01
2018-05-18T20:01:23.535Z,1005.02
2018-05-18T20:03:53.327Z,1005.05
2018-05-18T20:06:23.176Z,1005.04
2018-05-18T20:08:53.103Z,1005.05
2018-05-18T20:11:22.865Z,1005.04
2018-05-18T20:13:53.106Z,1005.02
2018-05-18T20:16:24.380Z,1005.06
2018-05-18T20:18:54.406Z,1005.03
2018-05-18T20:21:24.825Z,1005.05
2018-05-18T20:23:55.986Z,1005.13
2018-05-18T20:26:27.072Z,1005.13
2018-05-18T20:28:59.144Z,1005.15
2018-05-18T20:31:29.962Z,1005.08
2018-05-18T20:33:59.864Z,1005.11
2018-05-18T20:36:29.833Z,1005.10
2018-05-18T20:39:00.238Z,1005.11
2018-05-18T20:41:30.974Z,1005.14
2018-05-18T20:44:01.335Z,1005.13
2018-05-18T20:46:31.149Z,1005.16
2018-05-18T20:49:01.602Z,1005.18
2018-05-18T20:51:31.542Z,1005.16
2018-05-18T20:54:02.008Z,1005.22
2018-05-18T20:56:32.049Z,1005.18
2018-05-18T20:59:02.006Z,1005.24
2018-05-18T21:01:32.006Z,1005.24
2018-05-18T21:04:02.531Z,1005.24
2018-05-18T21:06:32.545Z,1005.24
2018-05-18T21:09:02.798Z,1005.27
2018-05-18T21:11:32.496Z,1005.26
2018-05-18T21:14:02.569Z,1005.34
2018-05-18T21:16:32.700Z,1005.30
2018-05-18T21:19:03.025Z,1005.36
2018-05-18T21:21:32.899Z,1005.35
2018-05-18T21:24:02.634Z,1005.44
2018-05-18T21:26:32.753Z,1005.37
2018-05-18T21:29:02.571Z,1005.42
2018-05-18T21:31:32.540Z,1005.37
2018-05-18T21:34:02.838Z,1005.40
2018-05-18T21:36:32.791Z,1005.35
2018-05-18T21:39:04.513Z,1005.30
2018-05-18T21:41:34.302Z,1005.34
2018-05-18T21:44:04.423Z,1005.35
2018-05-18T21:46:34.244Z,1005.36
2018-05-18T21:49:04.464Z,1005.40
2018-05-18T21:51:35.275Z,1005.44
2018-05-18T21:54:05.415Z,1005.50
2018-05-18T21:56:35.192Z,1005.50
2018-05-18T21:59:05.196Z,1005.51
2018-05-18T22:01:35.043Z,1005.54
2018-05-18T22:04:05.635Z,1005.58
2018-05-18T22:06:38.304Z,1005.58
2018-05-18T22:09:08.022Z,1005.60
2018-05-18T22:11:38.321Z,1005.64
2018-05-18T22:14:09.122Z,1005.64
2018-05-18T22:16:39.076Z,1005.66
2018-05-18T22:19:09.581Z,1005.64
2018-05-18T22:21:39.455Z,1005.59
2018-05-18T22:24:09.352Z,1005.60
2018-05-18T22:26:39.263Z,1005.60
2018-05-18T22:29:13.240Z,1005.56
2018-05-18T22:31:43.164Z,1005.54
2018-05-18T22:34:17.481Z,1005.46
2018-05-18T22:36:47.177Z,1005.53
2018-05-18T22:39:18.707Z,1005.49
2018-05-18T22:41:48.631Z,1005.45
2018-05-18T22:44:20.826Z,1005.51
2018-05-18T22:46:50.715Z,1005.52
2018-05-18T22:49:21.621Z,1005.55
2018-05-18T22:51:51.313Z,1005.56
2018-05-18T22:54:22.921Z,1005.55
2018-05-18T22:56:52.742Z,1005.57
2018-05-18T22:59:23.631Z,1005.55
2018-05-18T23:01:53.822Z,1005.52
2018-05-18T23:04:25.191Z,1005.53
2018-05-18T23:06:54.861Z,1005.55
2018-05-18T23:09:25.199Z,1005.57
2018-05-18T23:11:55.035Z,1005.59
2018-05-18T23:14:25.171Z,1005.51
2018-05-18T23:16:54.843Z,1005.54
2018-05-18T23:19:25.061Z,1005.53
2018-05-18T23:21:54.893Z,1005.56
2018-05-18T23:24:24.561Z,1005.58
2018-05-18T23:26:54.415Z,1005.57
2018-05-18T23:29:25.023Z,1005.54
2018-05-18T23:31:54.935Z,1005.50
2018-05-18T23:34:25.243Z,1005.52
2018-05-18T23:36:55.576Z,1005.52
2018-05-18T23:39:25.352Z,1005.53
2018-05-18T23:41:55.137Z,1005.50
2018-05-18T23:44:26.206Z,1005.59
2018-05-18T23:46:56.269Z,1005.52
2018-05-18T23:49:26.174Z,1005.50
2018-05-18T23:51:56.098Z,1005.53
2018-05-18T23:54:26.473Z,1005.50
2018-05-18T23:56:56.890Z,1005.48
2018-05-18T23:59:27.306Z,1005.46
